sensor_id;sensor_type;location;lat;lon;timestamp;P1;durP1;ratioP1;P2;durP2;ratioP2
65597;SDS011;52267;51.984;20.956;2023-05-23T00:00:58;11.60;;;7.20;;
65597;SDS011;52267;51.984;20.956;2023-05-23T00:03:26;10.20;;;7.00;;
65597;SDS011;52267;51.984;20.956;2023-05-23T00:05:54;10.80;;;7.30;;
65597;SDS011;52267;51.984;20.956;2023-05-23T00:08:22;11.20;;;7.50;;
65597;SDS011;52267;51.984;20.956;2023-05-23T00:10:49;15.30;;;7.20;;
65597;SDS011;52267;51.984;20.956;2023-05-23T00:13:16;11.70;;;8.20;;
65597;SDS011;52267;51.984;20.956;2023-05-23T00:15:44;12.20;;;7.70;;
65597;SDS011;52267;51.984;20.956;2023-05-23T00:18:11;12.20;;;7.60;;
65597;SDS011;52267;51.984;20.956;2023-05-23T00:20:40;9.50;;;7.60;;
65597;SDS011;52267;51.984;20.956;2023-05-23T00:23:11;10.00;;;8.00;;
65597;SDS011;52267;51.984;20.956;2023-05-23T00:25:44;11.00;;;7.10;;
65597;SDS011;52267;51.984;20.956;2023-05-23T00:28:18;10.50;;;7.00;;
65597;SDS011;52267;51.984;20.956;2023-05-23T00:30:45;11.50;;;8.10;;
65597;SDS011;52267;51.984;20.956;2023-05-23T00:33:12;10.10;;;7.20;;
65597;SDS011;52267;51.984;20.956;2023-05-23T00:35:40;11.10;;;6.60;;
65597;SDS011;52267;51.984;20.956;2023-05-23T00:38:08;12.10;;;7.60;;
65597;SDS011;52267;51.984;20.956;2023-05-23T00:40:37;12.70;;;7.60;;
65597;SDS011;52267;51.984;20.956;2023-05-23T00:43:04;14.50;;;8.10;;
65597;SDS011;52267;51.984;20.956;2023-05-23T00:45:31;11.80;;;8.10;;
65597;SDS011;52267;51.984;20.956;2023-05-23T00:47:59;12.50;;;8.00;;
65597;SDS011;52267;51.984;20.956;2023-05-23T00:50:26;11.80;;;8.70;;
65597;SDS011;52267;51.984;20.956;2023-05-23T00:52:56;10.00;;;7.70;;
65597;SDS011;52267;51.984;20.956;2023-05-23T00:55:25;13.60;;;9.30;;
65597;SDS011;52267;51.984;20.956;2023-05-23T00:57:53;10.00;;;8.20;;
65597;SDS011;52267;51.984;20.956;2023-05-23T01:00:24;12.90;;;8.20;;
65597;SDS011;52267;51.984;20.956;2023-05-23T01:02:52;14.90;;;8.50;;
65597;SDS011;52267;51.984;20.956;2023-05-23T01:05:20;11.20;;;8.00;;
65597;SDS011;52267;51.984;20.956;2023-05-23T01:07:50;13.30;;;9.00;;
65597;SDS011;52267;51.984;20.956;2023-05-23T01:10:23;13.20;;;8.80;;
65597;SDS011;52267;51.984;20.956;2023-05-23T01:13:39;10.90;;;7.90;;
65597;SDS011;52267;51.984;20.956;2023-05-23T01:17:09;13.40;;;8.60;;
65597;SDS011;52267;51.984;20.956;2023-05-23T01:21:52;11.60;;;8.00;;
65597;SDS011;52267;51.984;20.956;2023-05-23T01:24:29;12.10;;;8.70;;
65597;SDS011;52267;51.984;20.956;2023-05-23T01:27:10;17.10;;;9.00;;
65597;SDS011;52267;51.984;20.956;2023-05-23T01:29:56;14.50;;;8.50;;
65597;SDS011;52267;51.984;20.956;2023-05-23T01:32:24;13.10;;;8.80;;
65597;SDS011;52267;51.984;20.956;2023-05-23T01:34:53;11.60;;;8.40;;
65597;SDS011;52267;51.984;20.956;2023-05-23T01:37:20;12.90;;;8.40;;
65597;SDS011;52267;51.984;20.956;2023-05-23T01:39:47;12.70;;;8.20;;
65597;SDS011;52267;51.984;20.956;2023-05-23T01:42:14;12.60;;;9.00;;
65597;SDS011;52267;51.984;20.956;2023-05-23T01:44:43;12.90;;;8.70;;
65597;SDS011;52267;51.984;20.956;2023-05-23T01:47:12;13.20;;;8.80;;
65597;SDS011;52267;51.984;20.956;2023-05-23T01:49:39;13.30;;;8.80;;
65597;SDS011;52267;51.984;20.956;2023-05-23T01:52:07;11.70;;;8.60;;
65597;SDS011;52267;51.984;20.956;2023-05-23T01:54:37;14.80;;;9.00;;
65597;SDS011;52267;51.984;20.956;2023-05-23T01:59:36;14.00;;;8.40;;
65597;SDS011;52267;51.984;20.956;2023-05-23T02:02:04;15.00;;;9.20;;
65597;SDS011;52267;51.984;20.956;2023-05-23T02:04:32;16.10;;;9.60;;
65597;SDS011;52267;51.984;20.956;2023-05-23T02:06:59;12.40;;;8.20;;
65597;SDS011;52267;51.984;20.956;2023-05-23T02:09:25;15.20;;;9.20;;
65597;SDS011;52267;51.984;20.956;2023-05-23T02:11:53;14.80;;;8.70;;
65597;SDS011;52267;51.984;20.956;2023-05-23T02:14:20;12.90;;;9.40;;
65597;SDS011;52267;51.984;20.956;2023-05-23T02:16:47;12.50;;;9.10;;
65597;SDS011;52267;51.984;20.956;2023-05-23T02:19:14;12.90;;;8.30;;
65597;SDS011;52267;51.984;20.956;2023-05-23T02:21:41;13.40;;;8.30;;
65597;SDS011;52267;51.984;20.956;2023-05-23T02:24:08;12.60;;;8.70;;
65597;SDS011;52267;51.984;20.956;2023-05-23T02:26:35;12.80;;;8.10;;
65597;SDS011;52267;51.984;20.956;2023-05-23T02:29:03;14.80;;;8.90;;
65597;SDS011;52267;51.984;20.956;2023-05-23T02:31:30;11.10;;;8.00;;
65597;SDS011;52267;51.984;20.956;2023-05-23T02:33:57;10.80;;;7.90;;
65597;SDS011;52267;51.984;20.956;2023-05-23T02:36:24;11.40;;;7.50;;
65597;SDS011;52267;51.984;20.956;2023-05-23T02:38:51;10.60;;;7.80;;
65597;SDS011;52267;51.984;20.956;2023-05-23T02:41:18;11.90;;;8.40;;
65597;SDS011;52267;51.984;20.956;2023-05-23T02:43:46;12.30;;;8.10;;
65597;SDS011;52267;51.984;20.956;2023-05-23T02:46:13;10.70;;;7.30;;
65597;SDS011;52267;51.984;20.956;2023-05-23T02:48:40;11.40;;;7.90;;
65597;SDS011;52267;51.984;20.956;2023-05-23T02:51:07;11.30;;;8.00;;
65597;SDS011;52267;51.984;20.956;2023-05-23T02:53:35;9.20;;;7.30;;
65597;SDS011;52267;51.984;20.956;2023-05-23T02:56:02;12.20;;;8.00;;
65597;SDS011;52267;51.984;20.956;2023-05-23T02:58:29;10.80;;;8.60;;
65597;SDS011;52267;51.984;20.956;2023-05-23T03:00:56;11.00;;;7.90;;
65597;SDS011;52267;51.984;20.956;2023-05-23T03:03:23;12.70;;;8.10;;
65597;SDS011;52267;51.984;20.956;2023-05-23T03:05:50;11.90;;;7.40;;
65597;SDS011;52267;51.984;20.956;2023-05-23T03:08:17;13.20;;;8.00;;
65597;SDS011;52267;51.984;20.956;2023-05-23T03:10:44;12.90;;;9.30;;
65597;SDS011;52267;51.984;20.956;2023-05-23T03:13:12;14.30;;;8.70;;
65597;SDS011;52267;51.984;20.956;2023-05-23T03:15:39;13.40;;;8.40;;
65597;SDS011;52267;51.984;20.956;2023-05-23T03:18:06;12.30;;;8.00;;
65597;SDS011;52267;51.984;20.956;2023-05-23T03:20:33;12.60;;;7.80;;
65597;SDS011;52267;51.984;20.956;2023-05-23T03:23:00;11.40;;;7.10;;
65597;SDS011;52267;51.984;20.956;2023-05-23T03:25:27;12.30;;;8.10;;
65597;SDS011;52267;51.984;20.956;2023-05-23T03:27:54;10.80;;;8.10;;
65597;SDS011;52267;51.984;20.956;2023-05-23T03:30:21;11.50;;;8.10;;
65597;SDS011;52267;51.984;20.956;2023-05-23T03:32:48;10.60;;;7.70;;
65597;SDS011;52267;51.984;20.956;2023-05-23T03:35:15;11.40;;;9.30;;
65597;SDS011;52267;51.984;20.956;2023-05-23T03:37:42;11.00;;;7.80;;
65597;SDS011;52267;51.984;20.956;2023-05-23T03:40:09;12.10;;;8.20;;
65597;SDS011;52267;51.984;20.956;2023-05-23T03:42:37;11.60;;;7.30;;
65597;SDS011;52267;51.984;20.956;2023-05-23T03:45:05;10.90;;;7.10;;
65597;SDS011;52267;51.984;20.956;2023-05-23T03:47:32;9.60;;;7.50;;
65597;SDS011;52267;51.984;20.956;2023-05-23T03:49:59;10.10;;;7.30;;
65597;SDS011;52267;51.984;20.956;2023-05-23T03:52:26;10.20;;;6.90;;
65597;SDS011;52267;51.984;20.956;2023-05-23T03:54:53;10.50;;;7.40;;
65597;SDS011;52267;51.984;20.956;2023-05-23T03:57:21;12.50;;;8.90;;
65597;SDS011;52267;51.984;20.956;2023-05-23T03:59:48;13.10;;;8.50;;
65597;SDS011;52267;51.984;20.956;2023-05-23T04:02:15;12.50;;;8.20;;
65597;SDS011;52267;51.984;20.956;2023-05-23T04:04:42;11.20;;;7.80;;
65597;SDS011;52267;51.984;20.956;2023-05-23T04:07:09;10.90;;;7.80;;
65597;SDS011;52267;51.984;20.956;2023-05-23T04:09:36;10.30;;;7.70;;
65597;SDS011;52267;51.984;20.956;2023-05-23T04:12:04;14.60;;;9.50;;
65597;SDS011;52267;51.984;20.956;2023-05-23T04:14:31;12.30;;;8.70;;
65597;SDS011;52267;51.984;20.956;2023-05-23T04:16:59;11.70;;;8.90;;
65597;SDS011;52267;51.984;20.956;2023-05-23T04:19:26;14.20;;;10.20;;
65597;SDS011;52267;51.984;20.956;2023-05-23T04:21:53;14.40;;;9.30;;
65597;SDS011;52267;51.984;20.956;2023-05-23T04:24:20;12.50;;;9.00;;
65597;SDS011;52267;51.984;20.956;2023-05-23T04:26:47;12.60;;;9.20;;
65597;SDS011;52267;51.984;20.956;2023-05-23T04:29:15;11.80;;;8.80;;
65597;SDS011;52267;51.984;20.956;2023-05-23T04:31:42;13.50;;;9.00;;
65597;SDS011;52267;51.984;20.956;2023-05-23T04:34:11;12.30;;;9.40;;
65597;SDS011;52267;51.984;20.956;2023-05-23T04:36:38;14.70;;;9.70;;
65597;SDS011;52267;51.984;20.956;2023-05-23T04:39:05;13.90;;;9.50;;
65597;SDS011;52267;51.984;20.956;2023-05-23T04:41:32;13.50;;;9.30;;
65597;SDS011;52267;51.984;20.956;2023-05-23T04:43:59;14.50;;;8.80;;
65597;SDS011;52267;51.984;20.956;2023-05-23T04:46:26;12.80;;;8.70;;
65597;SDS011;52267;51.984;20.956;2023-05-23T04:48:53;13.60;;;9.00;;
65597;SDS011;52267;51.984;20.956;2023-05-23T04:51:21;12.90;;;9.10;;
65597;SDS011;52267;51.984;20.956;2023-05-23T04:53:48;15.50;;;9.60;;
65597;SDS011;52267;51.984;20.956;2023-05-23T04:56:16;11.10;;;8.70;;
65597;SDS011;52267;51.984;20.956;2023-05-23T04:58:43;13.70;;;8.80;;
65597;SDS011;52267;51.984;20.956;2023-05-23T05:01:11;14.70;;;9.10;;
65597;SDS011;52267;51.984;20.956;2023-05-23T05:03:39;11.30;;;7.80;;
65597;SDS011;52267;51.984;20.956;2023-05-23T05:06:07;8.30;;;7.00;;
65597;SDS011;52267;51.984;20.956;2023-05-23T05:08:34;10.90;;;8.50;;
65597;SDS011;52267;51.984;20.956;2023-05-23T05:11:01;12.20;;;6.90;;
65597;SDS011;52267;51.984;20.956;2023-05-23T05:13:28;11.40;;;8.00;;
65597;SDS011;52267;51.984;20.956;2023-05-23T05:15:55;11.10;;;7.70;;
65597;SDS011;52267;51.984;20.956;2023-05-23T05:18:23;13.20;;;8.10;;
65597;SDS011;52267;51.984;20.956;2023-05-23T05:20:52;10.00;;;7.10;;
65597;SDS011;52267;51.984;20.956;2023-05-23T05:23:19;11.50;;;7.90;;
65597;SDS011;52267;51.984;20.956;2023-05-23T05:25:49;10.00;;;7.10;;
65597;SDS011;52267;51.984;20.956;2023-05-23T05:28:16;12.30;;;7.30;;
65597;SDS011;52267;51.984;20.956;2023-05-23T05:30:43;9.00;;;6.70;;
65597;SDS011;52267;51.984;20.956;2023-05-23T05:33:12;14.80;;;7.90;;
65597;SDS011;52267;51.984;20.956;2023-05-23T05:35:39;10.70;;;6.90;;
65597;SDS011;52267;51.984;20.956;2023-05-23T05:38:06;9.60;;;7.50;;
65597;SDS011;52267;51.984;20.956;2023-05-23T05:40:33;8.60;;;6.60;;
65597;SDS011;52267;51.984;20.956;2023-05-23T05:43:01;9.00;;;7.00;;
65597;SDS011;52267;51.984;20.956;2023-05-23T05:45:28;10.20;;;7.50;;
65597;SDS011;52267;51.984;20.956;2023-05-23T05:47:55;9.10;;;6.40;;
65597;SDS011;52267;51.984;20.956;2023-05-23T05:50:22;8.30;;;6.10;;
65597;SDS011;52267;51.984;20.956;2023-05-23T05:52:50;10.30;;;7.10;;
65597;SDS011;52267;51.984;20.956;2023-05-23T05:55:17;9.00;;;6.20;;
65597;SDS011;52267;51.984;20.956;2023-05-23T05:57:44;8.00;;;6.30;;
65597;SDS011;52267;51.984;20.956;2023-05-23T06:00:12;9.40;;;6.00;;
65597;SDS011;52267;51.984;20.956;2023-05-23T06:02:41;8.80;;;6.00;;
65597;SDS011;52267;51.984;20.956;2023-05-23T06:05:13;8.90;;;5.60;;
65597;SDS011;52267;51.984;20.956;2023-05-23T06:07:42;10.90;;;5.70;;
65597;SDS011;52267;51.984;20.956;2023-05-23T06:10:10;8.30;;;4.90;;
65597;SDS011;52267;51.984;20.956;2023-05-23T06:12:40;7.30;;;5.30;;
65597;SDS011;52267;51.984;20.956;2023-05-23T06:15:08;9.10;;;5.50;;
65597;SDS011;52267;51.984;20.956;2023-05-23T06:17:35;7.60;;;4.10;;
65597;SDS011;52267;51.984;20.956;2023-05-23T06:20:03;6.20;;;4.50;;
65597;SDS011;52267;51.984;20.956;2023-05-23T06:22:31;5.90;;;4.00;;
65597;SDS011;52267;51.984;20.956;2023-05-23T06:24:58;6.20;;;4.40;;
65597;SDS011;52267;51.984;20.956;2023-05-23T06:27:25;8.80;;;4.40;;
65597;SDS011;52267;51.984;20.956;2023-05-23T06:29:52;7.00;;;4.40;;
65597;SDS011;52267;51.984;20.956;2023-05-23T06:32:19;7.10;;;4.10;;
65597;SDS011;52267;51.984;20.956;2023-05-23T06:34:46;4.80;;;3.60;;
65597;SDS011;52267;51.984;20.956;2023-05-23T06:37:13;6.40;;;3.70;;
65597;SDS011;52267;51.984;20.956;2023-05-23T06:39:40;5.20;;;3.70;;
65597;SDS011;52267;51.984;20.956;2023-05-23T06:42:08;5.30;;;3.40;;
65597;SDS011;52267;51.984;20.956;2023-05-23T06:44:35;6.70;;;4.20;;
65597;SDS011;52267;51.984;20.956;2023-05-23T06:47:02;5.70;;;3.10;;
65597;SDS011;52267;51.984;20.956;2023-05-23T06:49:29;5.20;;;3.40;;
65597;SDS011;52267;51.984;20.956;2023-05-23T06:51:56;5.80;;;3.60;;
65597;SDS011;52267;51.984;20.956;2023-05-23T06:54:23;4.60;;;3.30;;
65597;SDS011;52267;51.984;20.956;2023-05-23T06:56:50;5.30;;;3.30;;
65597;SDS011;52267;51.984;20.956;2023-05-23T06:59:18;4.40;;;3.10;;
65597;SDS011;52267;51.984;20.956;2023-05-23T07:01:45;5.40;;;3.60;;
65597;SDS011;52267;51.984;20.956;2023-05-23T07:04:12;6.00;;;3.30;;
65597;SDS011;52267;51.984;20.956;2023-05-23T07:06:39;4.30;;;3.10;;
65597;SDS011;52267;51.984;20.956;2023-05-23T07:09:06;5.80;;;3.00;;
65597;SDS011;52267;51.984;20.956;2023-05-23T07:11:33;5.20;;;3.60;;
65597;SDS011;52267;51.984;20.956;2023-05-23T07:14:01;5.40;;;2.70;;
65597;SDS011;52267;51.984;20.956;2023-05-23T07:16:28;4.80;;;3.10;;
65597;SDS011;52267;51.984;20.956;2023-05-23T07:18:55;6.30;;;2.80;;
65597;SDS011;52267;51.984;20.956;2023-05-23T07:21:22;3.80;;;2.60;;
65597;SDS011;52267;51.984;20.956;2023-05-23T07:23:49;3.70;;;2.30;;
65597;SDS011;52267;51.984;20.956;2023-05-23T07:26:16;5.50;;;3.40;;
65597;SDS011;52267;51.984;20.956;2023-05-23T07:28:43;5.00;;;3.00;;
65597;SDS011;52267;51.984;20.956;2023-05-23T07:31:10;5.30;;;3.10;;
65597;SDS011;52267;51.984;20.956;2023-05-23T07:33:39;4.90;;;3.20;;
65597;SDS011;52267;51.984;20.956;2023-05-23T07:36:06;5.30;;;3.00;;
65597;SDS011;52267;51.984;20.956;2023-05-23T07:38:33;6.20;;;3.20;;
65597;SDS011;52267;51.984;20.956;2023-05-23T07:41:01;5.50;;;2.70;;
65597;SDS011;52267;51.984;20.956;2023-05-23T07:43:28;4.70;;;3.10;;
65597;SDS011;52267;51.984;20.956;2023-05-23T07:45:55;4.30;;;3.00;;
65597;SDS011;52267;51.984;20.956;2023-05-23T07:48:22;4.40;;;3.30;;
65597;SDS011;52267;51.984;20.956;2023-05-23T07:50:49;5.80;;;3.30;;
65597;SDS011;52267;51.984;20.956;2023-05-23T07:53:20;4.40;;;2.70;;
65597;SDS011;52267;51.984;20.956;2023-05-23T07:55:48;6.80;;;3.30;;
65597;SDS011;52267;51.984;20.956;2023-05-23T07:58:15;7.90;;;3.50;;
65597;SDS011;52267;51.984;20.956;2023-05-23T08:00:44;4.90;;;3.00;;
65597;SDS011;52267;51.984;20.956;2023-05-23T08:03:11;4.90;;;3.00;;
65597;SDS011;52267;51.984;20.956;2023-05-23T08:05:38;5.00;;;2.90;;
65597;SDS011;52267;51.984;20.956;2023-05-23T08:08:05;5.80;;;2.70;;
65597;SDS011;52267;51.984;20.956;2023-05-23T08:10:33;4.90;;;2.60;;
65597;SDS011;52267;51.984;20.956;2023-05-23T08:13:00;4.80;;;2.90;;
65597;SDS011;52267;51.984;20.956;2023-05-23T08:15:32;8.30;;;3.30;;
65597;SDS011;52267;51.984;20.956;2023-05-23T08:17:59;5.10;;;2.70;;
65597;SDS011;52267;51.984;20.956;2023-05-23T08:20:26;5.10;;;2.70;;
65597;SDS011;52267;51.984;20.956;2023-05-23T08:22:58;5.30;;;3.00;;
65597;SDS011;52267;51.984;20.956;2023-05-23T08:25:26;7.20;;;2.90;;
65597;SDS011;52267;51.984;20.956;2023-05-23T08:27:59;11.10;;;3.20;;
65597;SDS011;52267;51.984;20.956;2023-05-23T08:30:27;4.70;;;2.80;;
65597;SDS011;52267;51.984;20.956;2023-05-23T08:32:55;5.60;;;2.70;;
65597;SDS011;52267;51.984;20.956;2023-05-23T08:35:23;5.00;;;2.90;;
65597;SDS011;52267;51.984;20.956;2023-05-23T08:37:50;5.60;;;3.20;;
65597;SDS011;52267;51.984;20.956;2023-05-23T08:40:19;5.10;;;3.10;;
65597;SDS011;52267;51.984;20.956;2023-05-23T08:42:48;10.00;;;3.40;;
65597;SDS011;52267;51.984;20.956;2023-05-23T08:45:16;5.80;;;3.10;;
65597;SDS011;52267;51.984;20.956;2023-05-23T08:47:45;21.60;;;4.40;;
65597;SDS011;52267;51.984;20.956;2023-05-23T08:50:16;8.00;;;3.10;;
65597;SDS011;52267;51.984;20.956;2023-05-23T08:55:23;6.50;;;2.80;;
65597;SDS011;52267;51.984;20.956;2023-05-23T08:57:56;5.50;;;2.80;;
65597;SDS011;52267;51.984;20.956;2023-05-23T09:00:27;5.70;;;2.70;;
65597;SDS011;52267;51.984;20.956;2023-05-23T09:02:55;6.30;;;2.60;;
65597;SDS011;52267;51.984;20.956;2023-05-23T09:05:23;7.30;;;2.70;;
65597;SDS011;52267;51.984;20.956;2023-05-23T09:07:50;5.50;;;2.80;;
65597;SDS011;52267;51.984;20.956;2023-05-23T09:10:18;6.30;;;2.90;;
65597;SDS011;52267;51.984;20.956;2023-05-23T09:12:48;3.60;;;2.40;;
65597;SDS011;52267;51.984;20.956;2023-05-23T09:15:15;4.80;;;2.40;;
65597;SDS011;52267;51.984;20.956;2023-05-23T09:17:43;9.80;;;2.50;;
65597;SDS011;52267;51.984;20.956;2023-05-23T09:20:13;5.30;;;2.50;;
65597;SDS011;52267;51.984;20.956;2023-05-23T09:25:15;5.40;;;2.60;;
65597;SDS011;52267;51.984;20.956;2023-05-23T09:27:42;5.60;;;2.70;;
65597;SDS011;52267;51.984;20.956;2023-05-23T09:30:10;5.60;;;2.40;;
65597;SDS011;52267;51.984;20.956;2023-05-23T09:32:38;5.90;;;2.70;;
65597;SDS011;52267;51.984;20.956;2023-05-23T09:35:06;5.10;;;2.50;;
65597;SDS011;52267;51.984;20.956;2023-05-23T09:37:40;4.70;;;2.60;;
65597;SDS011;52267;51.984;20.956;2023-05-23T09:40:12;5.40;;;2.20;;
65597;SDS011;52267;51.984;20.956;2023-05-23T09:42:43;6.00;;;2.90;;
65597;SDS011;52267;51.984;20.956;2023-05-23T09:45:12;4.80;;;2.70;;
65597;SDS011;52267;51.984;20.956;2023-05-23T09:47:50;6.20;;;2.60;;
65597;SDS011;52267;51.984;20.956;2023-05-23T09:50:18;5.00;;;2.70;;
65597;SDS011;52267;51.984;20.956;2023-05-23T09:52:46;3.70;;;1.90;;
65597;SDS011;52267;51.984;20.956;2023-05-23T09:55:14;5.60;;;2.80;;
65597;SDS011;52267;51.984;20.956;2023-05-23T09:57:42;3.80;;;2.90;;
65597;SDS011;52267;51.984;20.956;2023-05-23T10:00:10;5.40;;;3.10;;
65597;SDS011;52267;51.984;20.956;2023-05-23T10:08:19;5.60;;;2.90;;
65597;SDS011;52267;51.984;20.956;2023-05-23T10:14:06;4.90;;;2.10;;
65597;SDS011;52267;51.984;20.956;2023-05-23T10:19:24;6.00;;;2.80;;
65597;SDS011;52267;51.984;20.956;2023-05-23T10:21:57;3.50;;;2.40;;
65597;SDS011;52267;51.984;20.956;2023-05-23T10:24:28;5.30;;;2.80;;
65597;SDS011;52267;51.984;20.956;2023-05-23T10:26:55;5.60;;;3.00;;
65597;SDS011;52267;51.984;20.956;2023-05-23T10:29:24;4.50;;;2.80;;
65597;SDS011;52267;51.984;20.956;2023-05-23T10:31:51;4.80;;;2.60;;
65597;SDS011;52267;51.984;20.956;2023-05-23T10:34:45;3.30;;;2.40;;
65597;SDS011;52267;51.984;20.956;2023-05-23T10:40:57;6.10;;;2.60;;
65597;SDS011;52267;51.984;20.956;2023-05-23T10:49:17;4.40;;;2.60;;
65597;SDS011;52267;51.984;20.956;2023-05-23T10:51:50;4.00;;;2.40;;
65597;SDS011;52267;51.984;20.956;2023-05-23T10:54:18;5.30;;;2.30;;
65597;SDS011;52267;51.984;20.956;2023-05-23T10:56:47;5.10;;;2.60;;
65597;SDS011;52267;51.984;20.956;2023-05-23T10:59:29;4.20;;;2.50;;
65597;SDS011;52267;51.984;20.956;2023-05-23T11:01:59;4.20;;;2.50;;
65597;SDS011;52267;51.984;20.956;2023-05-23T11:04:27;5.40;;;2.40;;
65597;SDS011;52267;51.984;20.956;2023-05-23T11:06:55;5.30;;;2.60;;
65597;SDS011;52267;51.984;20.956;2023-05-23T11:09:26;5.30;;;2.60;;
65597;SDS011;52267;51.984;20.956;2023-05-23T11:12:01;4.20;;;2.70;;
65597;SDS011;52267;51.984;20.956;2023-05-23T11:19:58;3.70;;;2.30;;
65597;SDS011;52267;51.984;20.956;2023-05-23T11:22:32;4.50;;;2.70;;
65597;SDS011;52267;51.984;20.956;2023-05-23T11:25:05;4.70;;;3.10;;
65597;SDS011;52267;51.984;20.956;2023-05-23T11:27:39;5.20;;;2.90;;
65597;SDS011;52267;51.984;20.956;2023-05-23T11:30:12;4.50;;;3.10;;
65597;SDS011;52267;51.984;20.956;2023-05-23T11:32:46;5.60;;;2.80;;
65597;SDS011;52267;51.984;20.956;2023-05-23T11:35:17;4.50;;;3.20;;
65597;SDS011;52267;51.984;20.956;2023-05-23T11:37:44;7.50;;;3.80;;
65597;SDS011;52267;51.984;20.956;2023-05-23T11:43:04;5.00;;;3.90;;
65597;SDS011;52267;51.984;20.956;2023-05-23T11:45:34;5.00;;;3.40;;
65597;SDS011;52267;51.984;20.956;2023-05-23T11:48:12;5.30;;;3.40;;
65597;SDS011;52267;51.984;20.956;2023-05-23T11:50:50;6.30;;;3.80;;
65597;SDS011;52267;51.984;20.956;2023-05-23T11:53:21;4.70;;;3.70;;
65597;SDS011;52267;51.984;20.956;2023-05-23T11:55:55;7.10;;;3.30;;
65597;SDS011;52267;51.984;20.956;2023-05-23T11:58:37;5.00;;;3.50;;
65597;SDS011;52267;51.984;20.956;2023-05-23T12:01:06;5.70;;;3.60;;
65597;SDS011;52267;51.984;20.956;2023-05-23T12:03:45;4.00;;;3.30;;
65597;SDS011;52267;51.984;20.956;2023-05-23T12:06:14;4.80;;;3.70;;
65597;SDS011;52267;51.984;20.956;2023-05-23T12:08:42;5.20;;;3.10;;
65597;SDS011;52267;51.984;20.956;2023-05-23T12:11:09;5.50;;;3.30;;
65597;SDS011;52267;51.984;20.956;2023-05-23T12:13:40;4.60;;;3.30;;
65597;SDS011;52267;51.984;20.956;2023-05-23T12:16:07;6.10;;;3.30;;
65597;SDS011;52267;51.984;20.956;2023-05-23T12:18:36;5.90;;;3.30;;
65597;SDS011;52267;51.984;20.956;2023-05-23T12:21:05;7.10;;;3.50;;
65597;SDS011;52267;51.984;20.956;2023-05-23T12:23:34;6.60;;;3.70;;
65597;SDS011;52267;51.984;20.956;2023-05-23T12:26:05;5.00;;;3.30;;
65597;SDS011;52267;51.984;20.956;2023-05-23T12:28:34;4.40;;;2.80;;
65597;SDS011;52267;51.984;20.956;2023-05-23T12:31:10;5.00;;;3.40;;
65597;SDS011;52267;51.984;20.956;2023-05-23T12:33:45;5.90;;;3.30;;
65597;SDS011;52267;51.984;20.956;2023-05-23T12:36:14;5.80;;;3.40;;
65597;SDS011;52267;51.984;20.956;2023-05-23T12:38:48;5.30;;;3.80;;
65597;SDS011;52267;51.984;20.956;2023-05-23T12:41:17;6.00;;;3.40;;
65597;SDS011;52267;51.984;20.956;2023-05-23T12:43:52;4.50;;;3.40;;
65597;SDS011;52267;51.984;20.956;2023-05-23T12:46:22;6.20;;;3.30;;
65597;SDS011;52267;51.984;20.956;2023-05-23T12:48:51;5.10;;;3.10;;
65597;SDS011;52267;51.984;20.956;2023-05-23T12:51:20;5.10;;;3.20;;
65597;SDS011;52267;51.984;20.956;2023-05-23T12:53:47;5.00;;;3.30;;
65597;SDS011;52267;51.984;20.956;2023-05-23T12:56:14;5.80;;;3.40;;
65597;SDS011;52267;51.984;20.956;2023-05-23T12:58:41;4.90;;;3.40;;
65597;SDS011;52267;51.984;20.956;2023-05-23T13:01:09;6.50;;;3.60;;
65597;SDS011;52267;51.984;20.956;2023-05-23T13:03:36;5.70;;;3.50;;
65597;SDS011;52267;51.984;20.956;2023-05-23T13:06:04;5.10;;;3.50;;
65597;SDS011;52267;51.984;20.956;2023-05-23T13:08:32;4.60;;;3.40;;
65597;SDS011;52267;51.984;20.956;2023-05-23T13:10:59;4.90;;;2.90;;
65597;SDS011;52267;51.984;20.956;2023-05-23T13:13:26;4.80;;;3.80;;
65597;SDS011;52267;51.984;20.956;2023-05-23T13:15:53;6.40;;;3.60;;
65597;SDS011;52267;51.984;20.956;2023-05-23T13:18:21;6.10;;;3.30;;
65597;SDS011;52267;51.984;20.956;2023-05-23T13:20:48;5.00;;;3.40;;
65597;SDS011;52267;51.984;20.956;2023-05-23T13:23:15;4.70;;;3.30;;
65597;SDS011;52267;51.984;20.956;2023-05-23T13:25:42;8.20;;;3.70;;
65597;SDS011;52267;51.984;20.956;2023-05-23T13:28:10;5.60;;;3.50;;
65597;SDS011;52267;51.984;20.956;2023-05-23T13:30:37;6.70;;;3.50;;
65597;SDS011;52267;51.984;20.956;2023-05-23T13:33:04;4.80;;;3.70;;
65597;SDS011;52267;51.984;20.956;2023-05-23T13:35:31;5.20;;;3.40;;
65597;SDS011;52267;51.984;20.956;2023-05-23T13:37:58;5.60;;;3.60;;
65597;SDS011;52267;51.984;20.956;2023-05-23T13:40:25;6.70;;;3.70;;
65597;SDS011;52267;51.984;20.956;2023-05-23T13:42:52;5.30;;;3.40;;
65597;SDS011;52267;51.984;20.956;2023-05-23T13:45:19;4.70;;;3.30;;
65597;SDS011;52267;51.984;20.956;2023-05-23T13:47:48;5.90;;;3.50;;
65597;SDS011;52267;51.984;20.956;2023-05-23T13:50:16;5.40;;;3.50;;
65597;SDS011;52267;51.984;20.956;2023-05-23T13:52:43;4.70;;;3.20;;
65597;SDS011;52267;51.984;20.956;2023-05-23T13:55:11;5.80;;;3.60;;
65597;SDS011;52267;51.984;20.956;2023-05-23T13:57:38;6.70;;;3.80;;
65597;SDS011;52267;51.984;20.956;2023-05-23T14:00:05;5.50;;;3.80;;
65597;SDS011;52267;51.984;20.956;2023-05-23T14:02:34;5.70;;;3.20;;
65597;SDS011;52267;51.984;20.956;2023-05-23T14:05:02;5.50;;;3.60;;
65597;SDS011;52267;51.984;20.956;2023-05-23T14:07:30;6.40;;;4.00;;
65597;SDS011;52267;51.984;20.956;2023-05-23T14:09:57;7.90;;;3.90;;
65597;SDS011;52267;51.984;20.956;2023-05-23T14:12:25;6.50;;;4.00;;
65597;SDS011;52267;51.984;20.956;2023-05-23T14:14:52;6.10;;;3.90;;
65597;SDS011;52267;51.984;20.956;2023-05-23T14:17:19;10.90;;;4.10;;
65597;SDS011;52267;51.984;20.956;2023-05-23T14:19:47;5.60;;;3.80;;
65597;SDS011;52267;51.984;20.956;2023-05-23T14:22:14;9.40;;;4.20;;
65597;SDS011;52267;51.984;20.956;2023-05-23T14:24:41;6.70;;;3.80;;
65597;SDS011;52267;51.984;20.956;2023-05-23T14:27:08;5.00;;;3.80;;
65597;SDS011;52267;51.984;20.956;2023-05-23T14:29:35;6.70;;;4.00;;
65597;SDS011;52267;51.984;20.956;2023-05-23T14:32:02;6.40;;;4.10;;
65597;SDS011;52267;51.984;20.956;2023-05-23T14:34:29;6.70;;;4.40;;
65597;SDS011;52267;51.984;20.956;2023-05-23T14:36:57;6.30;;;3.70;;
65597;SDS011;52267;51.984;20.956;2023-05-23T14:39:26;6.30;;;3.90;;
65597;SDS011;52267;51.984;20.956;2023-05-23T14:41:54;5.60;;;4.10;;
65597;SDS011;52267;51.984;20.956;2023-05-23T14:44:21;4.90;;;3.40;;
65597;SDS011;52267;51.984;20.956;2023-05-23T14:46:48;6.50;;;4.10;;
65597;SDS011;52267;51.984;20.956;2023-05-23T14:49:16;6.40;;;3.80;;
65597;SDS011;52267;51.984;20.956;2023-05-23T14:51:44;9.60;;;4.20;;
65597;SDS011;52267;51.984;20.956;2023-05-23T14:54:11;6.50;;;3.40;;
65597;SDS011;52267;51.984;20.956;2023-05-23T14:56:38;6.60;;;3.90;;
65597;SDS011;52267;51.984;20.956;2023-05-23T14:59:06;8.70;;;4.40;;
65597;SDS011;52267;51.984;20.956;2023-05-23T15:01:33;7.70;;;4.30;;
65597;SDS011;52267;51.984;20.956;2023-05-23T15:04:01;6.30;;;4.10;;
65597;SDS011;52267;51.984;20.956;2023-05-23T15:06:28;5.60;;;3.90;;
65597;SDS011;52267;51.984;20.956;2023-05-23T15:08:55;8.20;;;4.20;;
65597;SDS011;52267;51.984;20.956;2023-05-23T15:11:22;6.00;;;4.40;;
65597;SDS011;52267;51.984;20.956;2023-05-23T15:13:50;5.90;;;4.40;;
65597;SDS011;52267;51.984;20.956;2023-05-23T15:16:17;5.70;;;4.10;;